sensor_id;sensor_type;location;lat;lon;timestamp;P1;durP1;ratioP1;P2;durP2;ratioP2
5900;SDS011;2976;49.764;9.796;2023-05-20T00:01:57;5.20;;;3.77;;
5900;SDS011;2976;49.764;9.796;2023-05-20T00:04:23;6.30;;;3.53;;
5900;SDS011;2976;49.764;9.796;2023-05-20T00:06:48;3.30;;;3.00;;
5900;SDS011;2976;49.764;9.796;2023-05-20T00:09:14;3.23;;;2.83;;
5900;SDS011;2976;49.764;9.796;2023-05-20T00:11:41;5.13;;;3.30;;
5900;SDS011;2976;49.764;9.796;2023-05-20T00:14:06;4.07;;;3.00;;
5900;SDS011;2976;49.764;9.796;2023-05-20T00:16:32;5.97;;;3.03;;
5900;SDS011;2976;49.764;9.796;2023-05-20T00:18:58;7.53;;;3.20;;
5900;SDS011;2976;49.764;9.796;2023-05-20T00:21:23;3.77;;;2.83;;
5900;SDS011;2976;49.764;9.796;2023-05-20T00:23:49;4.47;;;3.60;;
5900;SDS011;2976;49.764;9.796;2023-05-20T00:26:15;4.23;;;3.10;;
5900;SDS011;2976;49.764;9.796;2023-05-20T00:28:41;6.07;;;3.87;;
5900;SDS011;2976;49.764;9.796;2023-05-20T00:31:06;7.43;;;3.10;;
5900;SDS011;2976;49.764;9.796;2023-05-20T00:33:32;4.03;;;3.57;;
5900;SDS011;2976;49.764;9.796;2023-05-20T00:35:59;7.40;;;4.60;;
5900;SDS011;2976;49.764;9.796;2023-05-20T00:38:24;5.90;;;4.10;;
5900;SDS011;2976;49.764;9.796;2023-05-20T00:40:50;6.47;;;3.83;;
5900;SDS011;2976;49.764;9.796;2023-05-20T00:43:15;6.37;;;3.20;;
5900;SDS011;2976;49.764;9.796;2023-05-20T00:45:41;9.20;;;3.53;;
5900;SDS011;2976;49.764;9.796;2023-05-20T00:48:07;4.10;;;3.40;;
5900;SDS011;2976;49.764;9.796;2023-05-20T00:50:33;4.23;;;3.63;;
5900;SDS011;2976;49.764;9.796;2023-05-20T00:52:59;8.33;;;3.30;;
5900;SDS011;2976;49.764;9.796;2023-05-20T00:55:25;4.87;;;3.50;;
5900;SDS011;2976;49.764;9.796;2023-05-20T00:57:51;4.30;;;3.90;;
5900;SDS011;2976;49.764;9.796;2023-05-20T01:00:18;5.90;;;3.40;;
5900;SDS011;2976;49.764;9.796;2023-05-20T01:02:43;3.40;;;3.03;;
5900;SDS011;2976;49.764;9.796;2023-05-20T01:05:09;5.47;;;3.53;;
5900;SDS011;2976;49.764;9.796;2023-05-20T01:07:35;6.83;;;3.93;;
5900;SDS011;2976;49.764;9.796;2023-05-20T01:10:00;6.13;;;3.90;;
5900;SDS011;2976;49.764;9.796;2023-05-20T01:12:27;3.83;;;3.53;;
5900;SDS011;2976;49.764;9.796;2023-05-20T01:15:10;12.37;;;3.80;;
5900;SDS011;2976;49.764;9.796;2023-05-20T01:17:38;4.33;;;3.93;;
5900;SDS011;2976;49.764;9.796;2023-05-20T01:20:06;5.37;;;4.30;;
5900;SDS011;2976;49.764;9.796;2023-05-20T01:22:37;4.17;;;3.50;;
5900;SDS011;2976;49.764;9.796;2023-05-20T01:25:10;4.77;;;3.60;;
5900;SDS011;2976;49.764;9.796;2023-05-20T01:27:36;4.90;;;3.80;;
5900;SDS011;2976;49.764;9.796;2023-05-20T01:30:01;5.77;;;3.57;;
5900;SDS011;2976;49.764;9.796;2023-05-20T01:32:30;4.13;;;3.73;;
5900;SDS011;2976;49.764;9.796;2023-05-20T01:34:59;4.40;;;4.00;;
5900;SDS011;2976;49.764;9.796;2023-05-20T01:37:26;4.57;;;4.10;;
5900;SDS011;2976;49.764;9.796;2023-05-20T01:39:52;3.90;;;3.57;;
5900;SDS011;2976;49.764;9.796;2023-05-20T01:42:19;4.10;;;3.70;;
5900;SDS011;2976;49.764;9.796;2023-05-20T01:44:45;4.80;;;4.40;;
5900;SDS011;2976;49.764;9.796;2023-05-20T01:47:10;4.10;;;3.70;;
5900;SDS011;2976;49.764;9.796;2023-05-20T01:49:37;6.40;;;4.53;;
5900;SDS011;2976;49.764;9.796;2023-05-20T01:52:02;3.97;;;3.67;;
5900;SDS011;2976;49.764;9.796;2023-05-20T01:54:28;7.20;;;4.10;;
5900;SDS011;2976;49.764;9.796;2023-05-20T01:56:54;4.63;;;3.80;;
5900;SDS011;2976;49.764;9.796;2023-05-20T01:59:20;6.23;;;3.93;;
5900;SDS011;2976;49.764;9.796;2023-05-20T02:01:45;6.33;;;3.80;;
5900;SDS011;2976;49.764;9.796;2023-05-20T02:04:11;4.70;;;3.70;;
5900;SDS011;2976;49.764;9.796;2023-05-20T02:06:37;5.10;;;3.67;;
5900;SDS011;2976;49.764;9.796;2023-05-20T02:09:02;5.23;;;4.00;;
5900;SDS011;2976;49.764;9.796;2023-05-20T02:11:28;5.47;;;3.97;;
5900;SDS011;2976;49.764;9.796;2023-05-20T02:13:53;7.00;;;4.13;;
5900;SDS011;2976;49.764;9.796;2023-05-20T02:16:19;7.17;;;4.53;;
5900;SDS011;2976;49.764;9.796;2023-05-20T02:18:45;4.03;;;3.70;;
5900;SDS011;2976;49.764;9.796;2023-05-20T02:21:10;4.87;;;4.37;;
5900;SDS011;2976;49.764;9.796;2023-05-20T02:23:36;5.20;;;3.87;;
5900;SDS011;2976;49.764;9.796;2023-05-20T02:26:01;6.27;;;4.33;;
5900;SDS011;2976;49.764;9.796;2023-05-20T02:28:27;5.80;;;4.70;;
5900;SDS011;2976;49.764;9.796;2023-05-20T02:30:52;6.77;;;4.40;;
5900;SDS011;2976;49.764;9.796;2023-05-20T02:33:18;6.30;;;4.43;;
5900;SDS011;2976;49.764;9.796;2023-05-20T02:35:44;4.87;;;4.10;;
5900;SDS011;2976;49.764;9.796;2023-05-20T02:38:10;6.37;;;3.70;;
5900;SDS011;2976;49.764;9.796;2023-05-20T02:40:36;5.70;;;4.20;;
5900;SDS011;2976;49.764;9.796;2023-05-20T02:43:02;4.80;;;4.30;;
5900;SDS011;2976;49.764;9.796;2023-05-20T02:45:27;5.33;;;3.83;;
5900;SDS011;2976;49.764;9.796;2023-05-20T02:47:53;7.03;;;4.70;;
5900;SDS011;2976;49.764;9.796;2023-05-20T02:50:19;5.90;;;4.90;;
5900;SDS011;2976;49.764;9.796;2023-05-20T02:52:44;8.30;;;4.37;;
5900;SDS011;2976;49.764;9.796;2023-05-20T02:55:11;4.60;;;3.70;;
5900;SDS011;2976;49.764;9.796;2023-05-20T02:57:37;4.10;;;3.70;;
5900;SDS011;2976;49.764;9.796;2023-05-20T03:00:03;7.17;;;4.47;;
5900;SDS011;2976;49.764;9.796;2023-05-20T03:02:31;4.43;;;3.87;;
5900;SDS011;2976;49.764;9.796;2023-05-20T03:04:56;8.80;;;4.73;;
5900;SDS011;2976;49.764;9.796;2023-05-20T03:07:22;7.53;;;4.20;;
5900;SDS011;2976;49.764;9.796;2023-05-20T03:09:48;7.40;;;4.73;;
5900;SDS011;2976;49.764;9.796;2023-05-20T03:12:13;5.30;;;4.50;;
5900;SDS011;2976;49.764;9.796;2023-05-20T03:14:39;6.20;;;5.00;;
5900;SDS011;2976;49.764;9.796;2023-05-20T03:17:05;5.87;;;4.83;;
5900;SDS011;2976;49.764;9.796;2023-05-20T03:19:31;7.33;;;4.70;;
5900;SDS011;2976;49.764;9.796;2023-05-20T03:21:56;7.40;;;4.50;;
5900;SDS011;2976;49.764;9.796;2023-05-20T03:24:22;6.90;;;4.23;;
5900;SDS011;2976;49.764;9.796;2023-05-20T03:26:48;6.60;;;4.50;;
5900;SDS011;2976;49.764;9.796;2023-05-20T03:29:13;6.37;;;5.23;;
5900;SDS011;2976;49.764;9.796;2023-05-20T03:31:40;6.27;;;5.43;;
5900;SDS011;2976;49.764;9.796;2023-05-20T03:34:06;7.07;;;4.97;;
5900;SDS011;2976;49.764;9.796;2023-05-20T03:36:32;7.90;;;4.60;;
5900;SDS011;2976;49.764;9.796;2023-05-20T03:38:57;6.60;;;4.40;;
5900;SDS011;2976;49.764;9.796;2023-05-20T03:41:23;6.13;;;4.10;;
5900;SDS011;2976;49.764;9.796;2023-05-20T03:43:48;4.80;;;4.30;;
5900;SDS011;2976;49.764;9.796;2023-05-20T03:46:14;9.37;;;5.73;;
5900;SDS011;2976;49.764;9.796;2023-05-20T03:48:40;5.17;;;4.20;;
5900;SDS011;2976;49.764;9.796;2023-05-20T03:51:05;5.07;;;4.57;;
5900;SDS011;2976;49.764;9.796;2023-05-20T03:53:31;5.10;;;4.60;;
5900;SDS011;2976;49.764;9.796;2023-05-20T03:55:56;5.63;;;4.80;;
5900;SDS011;2976;49.764;9.796;2023-05-20T03:58:22;6.33;;;4.57;;
5900;SDS011;2976;49.764;9.796;2023-05-20T04:00:47;6.70;;;4.40;;
5900;SDS011;2976;49.764;9.796;2023-05-20T04:03:13;6.90;;;5.10;;
5900;SDS011;2976;49.764;9.796;2023-05-20T04:05:39;4.23;;;3.83;;
5900;SDS011;2976;49.764;9.796;2023-05-20T04:08:05;5.90;;;4.33;;
5900;SDS011;2976;49.764;9.796;2023-05-20T04:10:31;6.33;;;4.90;;
5900;SDS011;2976;49.764;9.796;2023-05-20T04:12:57;4.83;;;4.40;;
5900;SDS011;2976;49.764;9.796;2023-05-20T04:15:22;10.20;;;5.40;;
5900;SDS011;2976;49.764;9.796;2023-05-20T04:17:49;6.63;;;4.57;;
5900;SDS011;2976;49.764;9.796;2023-05-20T04:20:16;7.87;;;5.00;;
5900;SDS011;2976;49.764;9.796;2023-05-20T04:22:42;6.40;;;4.90;;
5900;SDS011;2976;49.764;9.796;2023-05-20T04:25:08;5.53;;;5.03;;
5900;SDS011;2976;49.764;9.796;2023-05-20T04:27:34;6.83;;;4.90;;
5900;SDS011;2976;49.764;9.796;2023-05-20T04:30:01;6.57;;;4.90;;
5900;SDS011;2976;49.764;9.796;2023-05-20T04:32:28;9.17;;;5.40;;
5900;SDS011;2976;49.764;9.796;2023-05-20T04:34:54;6.53;;;5.87;;
5900;SDS011;2976;49.764;9.796;2023-05-20T04:37:20;6.30;;;4.43;;
5900;SDS011;2976;49.764;9.796;2023-05-20T04:39:46;5.67;;;5.10;;
5900;SDS011;2976;49.764;9.796;2023-05-20T04:42:13;7.13;;;5.70;;
5900;SDS011;2976;49.764;9.796;2023-05-20T04:44:41;5.30;;;4.80;;
5900;SDS011;2976;49.764;9.796;2023-05-20T04:47:10;6.47;;;5.20;;
5900;SDS011;2976;49.764;9.796;2023-05-20T04:49:37;8.53;;;5.03;;
5900;SDS011;2976;49.764;9.796;2023-05-20T04:52:02;10.43;;;6.67;;
5900;SDS011;2976;49.764;9.796;2023-05-20T04:54:29;6.17;;;5.37;;
5900;SDS011;2976;49.764;9.796;2023-05-20T04:56:55;6.30;;;5.00;;
5900;SDS011;2976;49.764;9.796;2023-05-20T04:59:21;6.53;;;5.10;;
5900;SDS011;2976;49.764;9.796;2023-05-20T05:01:46;11.90;;;5.67;;
5900;SDS011;2976;49.764;9.796;2023-05-20T05:04:12;8.53;;;6.13;;
5900;SDS011;2976;49.764;9.796;2023-05-20T05:06:37;8.20;;;4.80;;
5900;SDS011;2976;49.764;9.796;2023-05-20T05:09:03;9.33;;;5.47;;
5900;SDS011;2976;49.764;9.796;2023-05-20T05:11:29;7.83;;;6.10;;
5900;SDS011;2976;49.764;9.796;2023-05-20T05:13:55;7.77;;;6.07;;
5900;SDS011;2976;49.764;9.796;2023-05-20T05:16:20;6.60;;;5.53;;
5900;SDS011;2976;49.764;9.796;2023-05-20T05:18:46;6.80;;;4.93;;
5900;SDS011;2976;49.764;9.796;2023-05-20T05:21:11;6.87;;;6.17;;
5900;SDS011;2976;49.764;9.796;2023-05-20T05:23:37;7.83;;;5.37;;
5900;SDS011;2976;49.764;9.796;2023-05-20T05:26:02;6.30;;;5.50;;
5900;SDS011;2976;49.764;9.796;2023-05-20T05:28:28;6.53;;;5.80;;
5900;SDS011;2976;49.764;9.796;2023-05-20T05:30:54;5.80;;;5.13;;
5900;SDS011;2976;49.764;9.796;2023-05-20T05:33:22;8.10;;;6.00;;
5900;SDS011;2976;49.764;9.796;2023-05-20T05:35:48;7.03;;;5.47;;
5900;SDS011;2976;49.764;9.796;2023-05-20T05:38:15;9.23;;;5.90;;
5900;SDS011;2976;49.764;9.796;2023-05-20T05:40:40;7.53;;;5.70;;
5900;SDS011;2976;49.764;9.796;2023-05-20T05:43:06;6.47;;;5.70;;
5900;SDS011;2976;49.764;9.796;2023-05-20T05:45:32;6.67;;;5.23;;
5900;SDS011;2976;49.764;9.796;2023-05-20T05:47:57;8.87;;;5.80;;
5900;SDS011;2976;49.764;9.796;2023-05-20T05:50:23;7.40;;;6.33;;
5900;SDS011;2976;49.764;9.796;2023-05-20T05:52:48;6.60;;;5.73;;
5900;SDS011;2976;49.764;9.796;2023-05-20T05:55:14;8.20;;;6.10;;
5900;SDS011;2976;49.764;9.796;2023-05-20T05:57:39;6.57;;;5.90;;
5900;SDS011;2976;49.764;9.796;2023-05-20T06:00:05;7.63;;;5.90;;
5900;SDS011;2976;49.764;9.796;2023-05-20T06:02:32;6.73;;;5.50;;
5900;SDS011;2976;49.764;9.796;2023-05-20T06:05:01;7.43;;;5.70;;
5900;SDS011;2976;49.764;9.796;2023-05-20T06:07:27;6.33;;;5.73;;
5900;SDS011;2976;49.764;9.796;2023-05-20T06:09:53;10.30;;;5.03;;
5900;SDS011;2976;49.764;9.796;2023-05-20T06:12:18;6.70;;;5.80;;
5900;SDS011;2976;49.764;9.796;2023-05-20T06:14:44;6.00;;;5.40;;
5900;SDS011;2976;49.764;9.796;2023-05-20T06:17:09;8.33;;;6.03;;
5900;SDS011;2976;49.764;9.796;2023-05-20T06:19:35;10.03;;;5.40;;
5900;SDS011;2976;49.764;9.796;2023-05-20T06:22:00;7.53;;;6.73;;
5900;SDS011;2976;49.764;9.796;2023-05-20T06:24:26;8.33;;;5.23;;
5900;SDS011;2976;49.764;9.796;2023-05-20T06:26:51;10.33;;;6.57;;
5900;SDS011;2976;49.764;9.796;2023-05-20T06:29:17;5.53;;;5.03;;
5900;SDS011;2976;49.764;9.796;2023-05-20T06:31:43;6.87;;;6.07;;
5900;SDS011;2976;49.764;9.796;2023-05-20T06:34:08;6.53;;;5.83;;
5900;SDS011;2976;49.764;9.796;2023-05-20T06:36:34;5.67;;;4.70;;
5900;SDS011;2976;49.764;9.796;2023-05-20T06:38:59;6.77;;;5.40;;
5900;SDS011;2976;49.764;9.796;2023-05-20T06:41:25;7.10;;;6.17;;
5900;SDS011;2976;49.764;9.796;2023-05-20T06:43:51;7.20;;;5.83;;
5900;SDS011;2976;49.764;9.796;2023-05-20T06:46:16;9.17;;;6.70;;
5900;SDS011;2976;49.764;9.796;2023-05-20T06:48:42;7.30;;;6.50;;
5900;SDS011;2976;49.764;9.796;2023-05-20T06:51:07;9.83;;;7.00;;
5900;SDS011;2976;49.764;9.796;2023-05-20T06:53:33;8.40;;;6.20;;
5900;SDS011;2976;49.764;9.796;2023-05-20T06:55:59;9.40;;;6.83;;
5900;SDS011;2976;49.764;9.796;2023-05-20T06:58:25;8.03;;;7.23;;
5900;SDS011;2976;49.764;9.796;2023-05-20T07:00:51;10.33;;;6.87;;
5900;SDS011;2976;49.764;9.796;2023-05-20T07:03:17;9.27;;;7.37;;
5900;SDS011;2976;49.764;9.796;2023-05-20T07:05:43;10.13;;;6.37;;
5900;SDS011;2976;49.764;9.796;2023-05-20T07:08:08;8.03;;;6.50;;
5900;SDS011;2976;49.764;9.796;2023-05-20T07:10:34;8.97;;;6.87;;
5900;SDS011;2976;49.764;9.796;2023-05-20T07:13:00;8.73;;;7.83;;
5900;SDS011;2976;49.764;9.796;2023-05-20T07:15:25;8.37;;;6.67;;
5900;SDS011;2976;49.764;9.796;2023-05-20T07:17:51;8.57;;;6.97;;
5900;SDS011;2976;49.764;9.796;2023-05-20T07:20:17;8.73;;;7.27;;
5900;SDS011;2976;49.764;9.796;2023-05-20T07:22:42;8.90;;;6.50;;
5900;SDS011;2976;49.764;9.796;2023-05-20T07:25:08;10.67;;;7.50;;
5900;SDS011;2976;49.764;9.796;2023-05-20T07:27:34;8.57;;;7.60;;
5900;SDS011;2976;49.764;9.796;2023-05-20T07:30:00;7.90;;;7.10;;
5900;SDS011;2976;49.764;9.796;2023-05-20T07:32:26;7.17;;;6.57;;
5900;SDS011;2976;49.764;9.796;2023-05-20T07:34:51;7.63;;;6.50;;
5900;SDS011;2976;49.764;9.796;2023-05-20T07:37:17;7.97;;;6.63;;
5900;SDS011;2976;49.764;9.796;2023-05-20T07:39:43;10.17;;;8.10;;
5900;SDS011;2976;49.764;9.796;2023-05-20T07:42:08;8.20;;;7.17;;
5900;SDS011;2976;49.764;9.796;2023-05-20T07:44:34;9.37;;;6.97;;
5900;SDS011;2976;49.764;9.796;2023-05-20T07:47:00;9.03;;;7.37;;
5900;SDS011;2976;49.764;9.796;2023-05-20T07:49:26;10.20;;;7.10;;
5900;SDS011;2976;49.764;9.796;2023-05-20T07:51:52;7.43;;;6.33;;
5900;SDS011;2976;49.764;9.796;2023-05-20T07:54:17;8.23;;;6.70;;
5900;SDS011;2976;49.764;9.796;2023-05-20T07:56:43;8.23;;;7.30;;
5900;SDS011;2976;49.764;9.796;2023-05-20T07:59:09;7.00;;;6.27;;
5900;SDS011;2976;49.764;9.796;2023-05-20T08:01:34;9.87;;;7.30;;
5900;SDS011;2976;49.764;9.796;2023-05-20T08:04:00;9.73;;;7.17;;
5900;SDS011;2976;49.764;9.796;2023-05-20T08:06:26;6.80;;;6.20;;
5900;SDS011;2976;49.764;9.796;2023-05-20T08:08:52;10.93;;;7.33;;
5900;SDS011;2976;49.764;9.796;2023-05-20T08:11:18;6.83;;;6.23;;
5900;SDS011;2976;49.764;9.796;2023-05-20T08:13:45;7.70;;;7.00;;
5900;SDS011;2976;49.764;9.796;2023-05-20T08:16:11;7.97;;;7.17;;
5900;SDS011;2976;49.764;9.796;2023-05-20T08:18:36;9.70;;;7.83;;
5900;SDS011;2976;49.764;9.796;2023-05-20T08:21:02;8.70;;;7.63;;
5900;SDS011;2976;49.764;9.796;2023-05-20T08:23:28;10.33;;;6.93;;
5900;SDS011;2976;49.764;9.796;2023-05-20T08:25:54;9.37;;;7.63;;
5900;SDS011;2976;49.764;9.796;2023-05-20T08:28:21;18.53;;;7.53;;
5900;SDS011;2976;49.764;9.796;2023-05-20T08:30:46;9.90;;;7.30;;
5900;SDS011;2976;49.764;9.796;2023-05-20T08:33:12;8.47;;;7.17;;
5900;SDS011;2976;49.764;9.796;2023-05-20T08:35:38;12.80;;;7.50;;
5900;SDS011;2976;49.764;9.796;2023-05-20T08:38:04;11.40;;;7.00;;
5900;SDS011;2976;49.764;9.796;2023-05-20T08:40:30;7.93;;;7.20;;
5900;SDS011;2976;49.764;9.796;2023-05-20T08:42:58;7.27;;;6.57;;
5900;SDS011;2976;49.764;9.796;2023-05-20T08:45:26;7.83;;;7.03;;
5900;SDS011;2976;49.764;9.796;2023-05-20T08:47:54;7.90;;;6.80;;
5900;SDS011;2976;49.764;9.796;2023-05-20T08:50:19;8.03;;;7.23;;
5900;SDS011;2976;49.764;9.796;2023-05-20T08:52:46;7.83;;;6.70;;
5900;SDS011;2976;49.764;9.796;2023-05-20T08:55:58;9.53;;;7.00;;
5900;SDS011;2976;49.764;9.796;2023-05-20T08:58:05;8.73;;;7.27;;
5900;SDS011;2976;49.764;9.796;2023-05-20T09:00:31;7.60;;;6.87;;
5900;SDS011;2976;49.764;9.796;2023-05-20T09:02:57;7.23;;;6.53;;
5900;SDS011;2976;49.764;9.796;2023-05-20T09:05:24;8.37;;;7.20;;
5900;SDS011;2976;49.764;9.796;2023-05-20T09:07:50;10.13;;;7.97;;
5900;SDS011;2976;49.764;9.796;2023-05-20T09:10:15;6.90;;;6.20;;
5900;SDS011;2976;49.764;9.796;2023-05-20T09:12:41;11.50;;;7.20;;
5900;SDS011;2976;49.764;9.796;2023-05-20T09:15:07;12.67;;;7.47;;
5900;SDS011;2976;49.764;9.796;2023-05-20T09:17:36;10.07;;;7.10;;
5900;SDS011;2976;49.764;9.796;2023-05-20T09:20:06;9.10;;;6.60;;
5900;SDS011;2976;49.764;9.796;2023-05-20T09:22:35;8.73;;;6.90;;
5900;SDS011;2976;49.764;9.796;2023-05-20T09:25:02;7.13;;;5.97;;
5900;SDS011;2976;49.764;9.796;2023-05-20T09:27:28;8.13;;;7.33;;
5900;SDS011;2976;49.764;9.796;2023-05-20T09:29:53;8.10;;;5.90;;
5900;SDS011;2976;49.764;9.796;2023-05-20T09:32:20;7.70;;;6.90;;
5900;SDS011;2976;49.764;9.796;2023-05-20T09:34:48;6.97;;;6.37;;
5900;SDS011;2976;49.764;9.796;2023-05-20T09:37:16;7.33;;;6.30;;
5900;SDS011;2976;49.764;9.796;2023-05-20T09:39:55;9.00;;;6.63;;
5900;SDS011;2976;49.764;9.796;2023-05-20T09:42:25;7.10;;;5.50;;
5900;SDS011;2976;49.764;9.796;2023-05-20T09:45:14;8.80;;;5.77;;
5900;SDS011;2976;49.764;9.796;2023-05-20T09:47:39;8.20;;;6.60;;
5900;SDS011;2976;49.764;9.796;2023-05-20T09:50:07;10.20;;;6.83;;
5900;SDS011;2976;49.764;9.796;2023-05-20T09:52:37;9.73;;;6.80;;
5900;SDS011;2976;49.764;9.796;2023-05-20T09:55:04;6.97;;;6.17;;
5900;SDS011;2976;49.764;9.796;2023-05-20T09:57:33;8.03;;;6.40;;
5900;SDS011;2976;49.764;9.796;2023-05-20T10:00:00;7.10;;;6.17;;
5900;SDS011;2976;49.764;9.796;2023-05-20T10:02:27;6.00;;;5.40;;
5900;SDS011;2976;49.764;9.796;2023-05-20T10:04:53;9.30;;;7.03;;
5900;SDS011;2976;49.764;9.796;2023-05-20T10:12:44;8.20;;;6.83;;
5900;SDS011;2976;49.764;9.796;2023-05-20T10:15:38;7.00;;;6.30;;
5900;SDS011;2976;49.764;9.796;2023-05-20T10:20:53;8.90;;;6.80;;
5900;SDS011;2976;49.764;9.796;2023-05-20T10:23:22;7.20;;;6.40;;
5900;SDS011;2976;49.764;9.796;2023-05-20T10:25:52;6.77;;;6.07;;
5900;SDS011;2976;49.764;9.796;2023-05-20T10:28:29;7.50;;;6.60;;
5900;SDS011;2976;49.764;9.796;2023-05-20T10:30:57;11.90;;;7.27;;
5900;SDS011;2976;49.764;9.796;2023-05-20T10:33:24;16.80;;;11.13;;
5900;SDS011;2976;49.764;9.796;2023-05-20T10:35:52;8.00;;;6.53;;
5900;SDS011;2976;49.764;9.796;2023-05-20T10:38:19;9.20;;;6.97;;
5900;SDS011;2976;49.764;9.796;2023-05-20T10:40:45;8.23;;;6.40;;
5900;SDS011;2976;49.764;9.796;2023-05-20T10:43:12;9.23;;;7.60;;
5900;SDS011;2976;49.764;9.796;2023-05-20T10:45:52;10.17;;;7.33;;
5900;SDS011;2976;49.764;9.796;2023-05-20T10:48:22;9.00;;;6.80;;
5900;SDS011;2976;49.764;9.796;2023-05-20T10:50:49;9.00;;;6.70;;
5900;SDS011;2976;49.764;9.796;2023-05-20T10:53:20;7.60;;;6.80;;
5900;SDS011;2976;49.764;9.796;2023-05-20T10:55:47;8.20;;;6.93;;
5900;SDS011;2976;49.764;9.796;2023-05-20T10:58:19;9.77;;;7.77;;
5900;SDS011;2976;49.764;9.796;2023-05-20T11:00:49;10.00;;;6.30;;
5900;SDS011;2976;49.764;9.796;2023-05-20T11:03:17;9.00;;;5.90;;
5900;SDS011;2976;49.764;9.796;2023-05-20T11:05:45;9.63;;;7.13;;
5900;SDS011;2976;49.764;9.796;2023-05-20T11:08:12;7.13;;;6.00;;
5900;SDS011;2976;49.764;9.796;2023-05-20T11:10:38;9.03;;;6.43;;
5900;SDS011;2976;49.764;9.796;2023-05-20T11:13:04;7.83;;;6.93;;
5900;SDS011;2976;49.764;9.796;2023-05-20T11:15:30;10.07;;;6.80;;
5900;SDS011;2976;49.764;9.796;2023-05-20T11:17:59;6.90;;;5.97;;
5900;SDS011;2976;49.764;9.796;2023-05-20T11:20:26;10.40;;;6.30;;
5900;SDS011;2976;49.764;9.796;2023-05-20T11:22:55;12.53;;;7.30;;
5900;SDS011;2976;49.764;9.796;2023-05-20T11:25:21;7.00;;;6.30;;
5900;SDS011;2976;49.764;9.796;2023-05-20T11:27:48;6.60;;;6.10;;
5900;SDS011;2976;49.764;9.796;2023-05-20T11:30:14;10.03;;;7.20;;
5900;SDS011;2976;49.764;9.796;2023-05-20T11:32:43;10.37;;;7.53;;
5900;SDS011;2976;49.764;9.796;2023-05-20T11:35:23;9.37;;;6.60;;
5900;SDS011;2976;49.764;9.796;2023-05-20T11:37:53;7.03;;;6.33;;
5900;SDS011;2976;49.764;9.796;2023-05-20T11:40:25;8.83;;;7.47;;
5900;SDS011;2976;49.764;9.796;2023-05-20T11:42:55;7.43;;;6.00;;
5900;SDS011;2976;49.764;9.796;2023-05-20T11:45:22;8.60;;;6.47;;
5900;SDS011;2976;49.764;9.796;2023-05-20T11:48:01;8.23;;;7.43;;
5900;SDS011;2976;49.764;9.796;2023-05-20T11:50:28;6.77;;;6.17;;
5900;SDS011;2976;49.764;9.796;2023-05-20T11:53:02;9.73;;;5.97;;
5900;SDS011;2976;49.764;9.796;2023-05-20T11:55:28;6.60;;;6.00;;
5900;SDS011;2976;49.764;9.796;2023-05-20T11:57:57;7.07;;;6.37;;
5900;SDS011;2976;49.764;9.796;2023-05-20T12:00:23;11.40;;;6.50;;
5900;SDS011;2976;49.764;9.796;2023-05-20T12:02:48;8.63;;;6.40;;
5900;SDS011;2976;49.764;9.796;2023-05-20T12:05:14;7.07;;;6.37;;
5900;SDS011;2976;49.764;9.796;2023-05-20T12:07:40;6.50;;;5.90;;
5900;SDS011;2976;49.764;9.796;2023-05-20T12:10:06;7.13;;;6.40;;
5900;SDS011;2976;49.764;9.796;2023-05-20T12:12:32;7.23;;;6.40;;
5900;SDS011;2976;49.764;9.796;2023-05-20T12:14:58;8.20;;;6.87;;
5900;SDS011;2976;49.764;9.796;2023-05-20T12:17:23;7.23;;;6.37;;
5900;SDS011;2976;49.764;9.796;2023-05-20T12:19:49;7.23;;;6.53;;
5900;SDS011;2976;49.764;9.796;2023-05-20T12:22:14;8.57;;;6.87;;
5900;SDS011;2976;49.764;9.796;2023-05-20T12:24:40;8.60;;;6.00;;
5900;SDS011;2976;49.764;9.796;2023-05-20T12:27:06;11.63;;;6.37;;
5900;SDS011;2976;49.764;9.796;2023-05-20T12:29:32;5.80;;;5.30;;
5900;SDS011;2976;49.764;9.796;2023-05-20T12:31:57;7.50;;;6.43;;
5900;SDS011;2976;49.764;9.796;2023-05-20T12:34:23;12.93;;;6.93;;
5900;SDS011;2976;49.764;9.796;2023-05-20T12:36:49;6.83;;;6.13;;
5900;SDS011;2976;49.764;9.796;2023-05-20T12:39:15;12.40;;;8.00;;
5900;SDS011;2976;49.764;9.796;2023-05-20T12:41:42;7.40;;;6.13;;
5900;SDS011;2976;49.764;9.796;2023-05-20T12:44:08;10.80;;;6.80;;
5900;SDS011;2976;49.764;9.796;2023-05-20T12:46:34;8.07;;;5.73;;
5900;SDS011;2976;49.764;9.796;2023-05-20T12:49:01;7.43;;;6.03;;
5900;SDS011;2976;49.764;9.796;2023-05-20T12:51:26;9.03;;;5.90;;
5900;SDS011;2976;49.764;9.796;2023-05-20T12:53:52;10.10;;;7.10;;
5900;SDS011;2976;49.764;9.796;2023-05-20T12:56:18;7.83;;;7.03;;
5900;SDS011;2976;49.764;9.796;2023-05-20T12:58:44;8.80;;;6.93;;
5900;SDS011;2976;49.764;9.796;2023-05-20T13:01:09;7.73;;;6.93;;
5900;SDS011;2976;49.764;9.796;2023-05-20T13:03:35;9.77;;;6.90;;
5900;SDS011;2976;49.764;9.796;2023-05-20T13:06:00;7.90;;;7.10;;
5900;SDS011;2976;49.764;9.796;2023-05-20T13:08:27;7.23;;;5.90;;
5900;SDS011;2976;49.764;9.796;2023-05-20T13:10:53;10.40;;;7.00;;
5900;SDS011;2976;49.764;9.796;2023-05-20T13:13:18;8.30;;;6.70;;
5900;SDS011;2976;49.764;9.796;2023-05-20T13:15:48;7.50;;;6.77;;
5900;SDS011;2976;49.764;9.796;2023-05-20T13:18:14;6.47;;;5.87;;
5900;SDS011;2976;49.764;9.796;2023-05-20T13:20:43;7.17;;;6.57;;
5900;SDS011;2976;49.764;9.796;2023-05-20T13:23:09;6.97;;;6.27;;
5900;SDS011;2976;49.764;9.796;2023-05-20T13:25:35;7.40;;;6.30;;
5900;SDS011;2976;49.764;9.796;2023-05-20T13:28:01;7.97;;;6.30;;
5900;SDS011;2976;49.764;9.796;2023-05-20T13:30:27;6.57;;;5.97;;
5900;SDS011;2976;49.764;9.796;2023-05-20T13:32:53;9.63;;;5.60;;
5900;SDS011;2976;49.764;9.796;2023-05-20T13:35:19;8.10;;;6.60;;
5900;SDS011;2976;49.764;9.796;2023-05-20T13:37:44;7.20;;;6.13;;
5900;SDS011;2976;49.764;9.796;2023-05-20T13:40:10;8.07;;;6.30;;
5900;SDS011;2976;49.764;9.796;2023-05-20T13:42:36;8.20;;;5.87;;
5900;SDS011;2976;49.764;9.796;2023-05-20T13:45:02;7.30;;;6.60;;
5900;SDS011;2976;49.764;9.796;2023-05-20T13:47:28;7.60;;;6.90;;
5900;SDS011;2976;49.764;9.796;2023-05-20T13:49:54;27.83;;;6.83;;
5900;SDS011;2976;49.764;9.796;2023-05-20T13:52:19;7.17;;;6.40;;
5900;SDS011;2976;49.764;9.796;2023-05-20T13:54:45;7.10;;;6.40;;
5900;SDS011;2976;49.764;9.796;2023-05-20T13:57:12;7.00;;;6.37;;
5900;SDS011;2976;49.764;9.796;2023-05-20T13:59:38;7.07;;;6.47;;
5900;SDS011;2976;49.764;9.796;2023-05-20T14:02:04;14.93;;;6.37;;
5900;SDS011;2976;49.764;9.796;2023-05-20T14:04:30;7.10;;;5.77;;
5900;SDS011;2976;49.764;9.796;2023-05-20T14:07:01;6.50;;;5.90;;
5900;SDS011;2976;49.764;9.796;2023-05-20T14:09:28;12.70;;;7.73;;
5900;SDS011;2976;49.764;9.796;2023-05-20T14:11:53;9.30;;;6.83;;
5900;SDS011;2976;49.764;9.796;2023-05-20T14:14:19;17.20;;;7.50;;
5900;SDS011;2976;49.764;9.796;2023-05-20T14:16:45;12.40;;;7.07;;
5900;SDS011;2976;49.764;9.796;2023-05-20T14:19:11;10.10;;;7.20;;
5900;SDS011;2976;49.764;9.796;2023-05-20T14:21:36;6.93;;;6.07;;
5900;SDS011;2976;49.764;9.796;2023-05-20T14:24:02;7.50;;;6.77;;
5900;SDS011;2976;49.764;9.796;2023-05-20T14:26:27;7.90;;;6.47;;
5900;SDS011;2976;49.764;9.796;2023-05-20T14:28:53;8.60;;;6.53;;
5900;SDS011;2976;49.764;9.796;2023-05-20T14:31:18;6.93;;;6.23;;
5900;SDS011;2976;49.764;9.796;2023-05-20T14:33:44;8.63;;;6.27;;
5900;SDS011;2976;49.764;9.796;2023-05-20T14:36:10;7.57;;;5.93;;
5900;SDS011;2976;49.764;9.796;2023-05-20T14:38:35;8.07;;;6.73;;
5900;SDS011;2976;49.764;9.796;2023-05-20T14:41:01;7.93;;;6.50;;
5900;SDS011;2976;49.764;9.796;2023-05-20T14:43:27;6.50;;;5.50;;
5900;SDS011;2976;49.764;9.796;2023-05-20T14:45:52;11.07;;;7.10;;
5900;SDS011;2976;49.764;9.796;2023-05-20T14:48:18;6.97;;;6.30;;
5900;SDS011;2976;49.764;9.796;2023-05-20T14:50:44;7.97;;;5.80;;
5900;SDS011;2976;49.764;9.796;2023-05-20T14:53:09;6.17;;;5.57;;
5900;SDS011;2976;49.764;9.796;2023-05-20T14:55:35;7.13;;;6.43;;
5900;SDS011;2976;49.764;9.796;2023-05-20T14:58:00;12.03;;;6.03;;
5900;SDS011;2976;49.764;9.796;2023-05-20T15:00:26;9.33;;;6.73;;
5900;SDS011;2976;49.764;9.796;2023-05-20T15:02:51;9.80;;;6.47;;
5900;SDS011;2976;49.764;9.796;2023-05-20T15:05:17;8.37;;;6.60;;
5900;SDS011;2976;49.764;9.796;2023-05-20T15:07:42;12.00;;;7.10;;
5900;SDS011;2976;49.764;9.796;2023-05-20T15:10:08;6.90;;;6.20;;
5900;SDS011;2976;49.764;9.796;2023-05-20T15:12:34;6.83;;;6.13;;
5900;SDS011;2976;49.764;9.796;2023-05-20T15:14:59;7.60;;;6.90;;
5900;SDS011;2976;49.764;9.796;2023-05-20T15:17:25;8.87;;;6.50;;